Etusivu
METAR-TAF:

METAR-TAF

Lentoasemat :

Noorvik, Alaska, Yhdysvallat

Leveyspiiri: 66-49-03N, Pituuspiiri: 161-01-20W, korkeus merenpinnasta: 17 m

Tämänhetkinen sää

Tämä raportti tehtiin 13 minuuttia sitten, kello 04.51 UTC
Tuuli 9 kn etelästä/kaakosta
Lämpötila 1°C
Kosteus 93%
Ilmanpaine 1008 hPa
Näkyvyys: 16.1 km
Hajanaisia pilviä 900 ft:n korkeudessa
Hajonneita pilviä 2600 ft:n korkeudessa
Pilvistä 3900 ft:n korkeudessa

METAR: PFNO 030451Z AUTO 15009KT 10SM SCT009 BKN026 OVC039 01/00 A2978 RMK AO2 RAE01B17E39SNB01E17 P0000 FZRANO $

Aika: 21:04 (05:04 UTC)


TAF: puuttuu

Säähavainnot ja -ennusteet yli 4000 lentoasemalta (METAR- ja TAF-raportit).

Käytössä olevat sääasemat on merkitty karttaan keltaisilla ja punaisilla pisteillä.

Aseta hiiri pisteen päälle nähdäksesi sääaseman nimen.

Klikkaa sitten nähdäksesi säähavainnot ja -ennusteet.

Kartan vaihtaminen: klikkaa mustalla rastilla varustettuja vihreitä pisteitä, niin voit zoomata sisään; viivalla varustettua vihreää pistettä, niin voit zoomata ulos tai vihreitä nuolia, niin pääset viereisille kartoille.


METAR-TAF: